New Square, New York
Current Conditions -  °F | °C
As of 1:56 PM on Friday 24 Oct 2014 (Local Time) from KHPN Reporting Station
Broken Clouds Broken Clouds  
Wind Chill: 55°   Ceiling: 3500
Heat Index: 55°   Visibility: 10mi
Dew Point: 43°   Wind: 14mph
Humidity: 64%   Direction: 320°NW
Pressure: 29.76"   Gusts: NA
Location:  41.1194°N, 74.0479°W
Report Text: KHPN 241756Z 32012KT 10SM FEW025 BKN035 13/06 A2976 RMK AO2 SLP079 60000 T01280061 10133 20094 58010
Loading
Personal Weather Stations






























Interactive Weather Map
Tropical Storm Tracking
New forecast layout! Learn more

10-Day Weather Forecast

Advertisements
Track Severe Weather on mobile